RAK weather

Menara Airport
Marrakech, Marrakech Province, Morocco

Public forecast

Using degrees Celsius for public forecast. Weather courtesy of forecast.io.

METAR (pilot weather report)

Retrieved 2019/04/22 13:30 UTC (5 minutes ago):

GMMX 221330Z 36006KT 320V060 9999 SCT023 23/06 Q1009 NOSIG

TAF (pilot weather forecast)

Retrieved 2019/04/22 12:00 UTC (2 hours ago):

TAF GMMX 221100Z 2212/2318 24006KT 8000 SCT026 TEMPO 2215/2221 30014KT TEMPO 2311/2318 5000 -RA SCT013 BKN020